Time;durP1;ratioP1;P1;durP2;ratioP2;P2;SDS_P1;SDS_P2;PMS_P1;PMS_P2;Temp;Humidity;BMP_temperature;BMP_pressure;BME280_temperature;BME280_humidity;BME280_pressure;Samples;Min_cycle;Max_cycle;Signal;HPM_P1;HPM_P2
2022/01/01 00:00:48;;;;;;;6.90;2.90;;;;;;;11.24;90.62;100643.80;1688502;83;21454;-78
2022/01/01 00:03:14;;;;;;;9.90;3.50;;;;;;;11.23;90.65;100639.94;1668412;83;20903;-78
2022/01/01 00:05:41;;;;;;;8.13;3.03;;;;;;;11.21;90.66;100636.09;1688807;84;21647;-78
2022/01/01 00:08:08;;;;;;;8.63;3.60;;;;;;;11.20;90.63;100642.59;1688264;83;21435;-79
2022/01/01 00:10:34;;;;;;;24.55;22.50;;;;;;;11.20;90.68;100645.17;1692056;84;20947;-78
2022/01/01 00:13:02;;;;;;;41.77;39.00;;;;;;;11.18;90.63;100645.64;1667545;84;21523;-78
2022/01/01 00:15:28;;;;;;;15.20;13.95;;;;;;;11.16;90.65;100651.28;1676204;84;20953;-78
2022/01/01 00:17:57;;;;;;;8.77;6.70;;;;;;;11.16;90.71;100660.34;1692700;84;21404;-78
2022/01/01 00:20:22;;;;;;;7.60;4.12;;;;;;;11.16;90.71;100666.38;1688946;83;20919;-78
2022/01/01 00:22:48;;;;;;;7.22;4.80;;;;;;;11.17;90.71;100666.78;1692172;84;20980;-78
2022/01/01 00:25:14;;;;;;;6.50;3.67;;;;;;;11.15;90.69;100665.95;1692633;83;21652;-78
2022/01/01 00:27:40;;;;;;;5.07;2.53;;;;;;;11.15;90.73;100675.45;1692624;83;21488;-78
2022/01/01 00:30:08;;;;;;;2.20;1.77;;;;;;;11.15;90.70;100680.63;1690561;84;21441;-78
2022/01/01 00:32:38;;;;;;;2.70;1.70;;;;;;;11.14;90.72;100683.66;1691999;83;21562;-78
2022/01/01 00:35:06;;;;;;;2.47;1.95;;;;;;;11.13;90.72;100682.39;1691754;84;20928;-78
2022/01/01 00:37:32;;;;;;;1.25;1.10;;;;;;;11.15;90.76;100685.81;1691331;84;20977;-78
2022/01/01 00:39:58;;;;;;;1.87;1.07;;;;;;;11.14;90.69;100691.42;1676366;83;21531;-79
2022/01/01 00:42:24;;;;;;;1.90;1.80;;;;;;;11.12;90.68;100691.89;1690124;84;21360;-79
2022/01/01 00:44:50;;;;;;;1.65;1.45;;;;;;;11.11;90.67;100696.66;1680181;84;21470;-78
2022/01/01 00:47:16;;;;;;;1.20;1.07;;;;;;;11.12;90.69;100709.16;1680543;84;20998;-78
2022/01/01 00:49:43;;;;;;;1.10;1.00;;;;;;;11.11;90.71;100709.59;1684782;83;20904;-78
2022/01/01 00:52:09;;;;;;;3.08;1.67;;;;;;;11.10;90.75;100706.59;1677633;84;21490;-78
2022/01/01 00:54:36;;;;;;;1.27;0.98;;;;;;;11.10;90.74;100711.77;1613992;86;20930;-78
2022/01/01 00:57:02;;;;;;;0.70;0.70;;;;;;;11.10;90.72;100722.12;1673183;84;21407;-78
2022/01/01 00:59:30;;;;;;;4.50;1.98;;;;;;;11.10;90.74;100713.06;1653253;84;20920;-78
2022/01/01 01:01:58;;;;;;;5.00;2.08;;;;;;;11.10;90.74;100718.23;1629410;87;21724;-78
2022/01/01 01:04:25;;;;;;;1999.90;999.90;;;;;;;11.09;90.73;100719.11;1611614;86;21443;-78
2022/01/01 01:06:52;;;;;;;1999.90;999.90;;;;;;;11.10;90.75;100727.30;1641116;85;20887;-78
2022/01/01 01:09:18;;;;;;;1999.90;999.90;;;;;;;11.10;90.77;100732.91;1641121;85;347564;-77
2022/01/01 01:11:47;;;;;;;1999.90;999.90;;;;;;;11.09;90.71;100735.08;1649733;85;20990;-79
2022/01/01 01:14:20;;;;;;;1999.90;999.90;;;;;;;11.07;90.74;100741.58;1614828;87;21123;-78
2022/01/01 01:16:41;;;;;;;1999.90;999.90;;;;;;;11.07;90.76;100740.28;1619524;86;20918;-78
2022/01/01 01:19:07;;;;;;;1999.90;999.90;;;;;;;11.06;90.74;100742.89;1617255;87;20911;-77
2022/01/01 01:21:33;;;;;;;1999.90;999.90;;;;;;;11.03;90.75;100740.35;1612084;87;20951;-78
2022/01/01 01:24:01;;;;;;;1999.90;999.90;;;;;;;11.02;90.75;100743.38;1612228;87;21072;-78
2022/01/01 01:26:28;;;;;;;1999.90;999.90;;;;;;;11.01;90.80;100745.55;1629010;86;21368;-79
2022/01/01 01:28:56;;;;;;;1999.90;999.90;;;;;;;11.01;90.85;100751.16;1630548;87;20930;-79
2022/01/01 01:31:24;;;;;;;1999.90;999.90;;;;;;;11.01;90.81;100754.61;1617894;86;20887;-78
2022/01/01 01:33:50;;;;;;;1999.90;999.90;;;;;;;11.01;90.89;100755.05;1633754;86;20923;-78
2022/01/01 01:36:17;;;;;;;1999.90;999.90;;;;;;;11.02;90.90;100751.58;1630892;87;21436;-79
2022/01/01 01:38:43;;;;;;;;;;;;;;;11.01;90.81;100755.05;1639862;87;21381;-79
2022/01/01 01:41:10;;;;;;;1999.90;999.90;;;;;;;10.98;90.87;100749.92;1638802;86;20182;-79
2022/01/01 01:43:36;;;;;;;1999.90;999.90;;;;;;;10.98;90.87;100760.27;1648641;85;28674;-79
2022/01/01 01:46:09;;;;;;;1999.90;999.90;;;;;;;10.98;90.88;100752.51;1624620;86;20941;-78
2022/01/01 01:48:37;;;;;;;1999.90;999.90;;;;;;;10.97;90.90;100754.23;1645796;86;20926;-78
2022/01/01 01:51:04;;;;;;;1999.90;999.90;;;;;;;10.95;90.85;100757.29;1662370;86;20962;-79
2022/01/01 01:53:31;;;;;;;1999.90;999.90;;;;;;;10.95;90.86;100763.75;1621283;86;20910;-78
2022/01/01 01:55:59;;;;;;;1999.90;999.90;;;;;;;10.95;90.92;100763.75;1676256;85;20901;-78
2022/01/01 01:58:27;;;;;;;1999.90;999.90;;;;;;;10.95;90.92;100776.69;1657310;85;21571;-79
2022/01/01 02:01:18;;;;;;;1999.90;999.90;;;;;;;10.95;90.88;100777.98;1684641;83;20907;-78
2022/01/01 02:03:37;;;;;;;1999.90;999.90;;;;;;;10.96;90.90;100780.98;1692285;84;20897;-78
2022/01/01 02:06:06;;;;;;;1999.90;999.90;;;;;;;10.95;90.85;100780.58;1677277;84;26683;-78
2022/01/01 02:08:33;;;;;;;1999.90;999.90;;;;;;;10.94;90.90;100787.48;1691969;83;21359;-78
2022/01/01 02:10:59;;;;;;;1999.90;999.90;;;;;;;10.94;90.83;100790.50;1685493;84;21400;-78
2022/01/01 02:13:37;;;;;;;1999.90;999.90;;;;;;;10.93;90.83;100799.14;1682137;84;20963;-78
2022/01/01 02:16:27;;;;;;;156.80;146.53;;;;;;;10.92;90.84;100795.70;1657683;85;21075;-78
2022/01/01 02:18:44;;;;;;;396.80;358.40;;;;;;;10.92;90.89;100799.58;1660083;84;21075;-78
2022/01/01 02:21:12;;;;;;;1999.90;999.90;;;;;;;10.92;90.89;100798.73;1663139;86;21704;-78
2022/01/01 02:23:42;;;;;;;1999.90;999.90;;;;;;;10.93;90.89;100795.27;1657357;85;20972;-79
2022/01/01 02:26:09;;;;;;;1999.90;999.90;;;;;;;10.92;90.89;100803.47;1647144;86;20959;-78
2022/01/01 02:28:34;;;;;;;1999.90;999.90;;;;;;;10.92;90.89;100812.52;1656104;85;21384;-78
2022/01/01 02:31:00;;;;;;;1999.90;999.90;;;;;;;10.91;90.88;100804.38;1663305;86;20951;-79
2022/01/01 02:33:26;;;;;;;1999.90;999.90;;;;;;;10.92;90.88;100807.78;1663864;84;20951;-79
2022/01/01 02:35:52;;;;;;;1999.90;999.90;;;;;;;10.92;90.89;100803.47;1660192;84;20994;-79
2022/01/01 02:38:18;;;;;;;1999.90;999.90;;;;;;;10.93;90.92;100817.25;1660300;86;21071;-78
2022/01/01 02:40:44;;;;;;;1999.90;999.90;;;;;;;10.85;90.74;100797.98;1644630;85;20888;-78
2022/01/01 02:43:11;;;;;;;1999.90;999.90;;;;;;;10.94;90.90;100812.06;1661437;86;21466;-79
2022/01/01 02:45:37;;;;;;;1140.47;983.23;;;;;;;10.95;90.87;100821.53;1663408;84;21123;-78
2022/01/01 02:48:04;;;;;;;41.37;39.30;;;;;;;10.93;90.83;100817.25;1663640;86;21080;-79
2022/01/01 02:50:30;;;;;;;153.20;144.62;;;;;;;10.93;90.82;100823.72;1650379;85;21076;-78
2022/01/01 02:52:56;;;;;;;327.97;308.30;;;;;;;10.90;90.89;100823.36;1658717;86;21084;-78
2022/01/01 02:55:22;;;;;;;4.65;4.40;;;;;;;10.91;90.87;100825.51;1671209;84;21111;-79
2022/01/01 02:57:48;;;;;;;6.23;5.83;;;;;;;10.90;90.84;100827.68;1662955;84;22483;-79
2022/01/01 03:00:15;;;;;;;5.37;5.10;;;;;;;10.89;90.83;100829.41;1663802;86;20918;-79
2022/01/01 03:02:41;;;;;;;9.18;8.60;;;;;;;10.89;90.86;100822.94;1664854;86;20944;-79
2022/01/01 03:05:08;;;;;;;4.80;4.60;;;;;;;10.91;90.87;100831.53;1651489;84;20963;-79
2022/01/01 03:07:35;;;;;;;7.40;7.00;;;;;;;10.90;90.79;100831.56;1662358;84;20945;-78
2022/01/01 03:10:04;;;;;;;8.88;8.18;;;;;;;10.90;90.81;100833.70;1662516;86;21362;-78
2022/01/01 03:12:30;;;;;;;7.70;7.40;;;;;;;10.88;90.80;100830.28;1657823;85;20959;-78
2022/01/01 03:14:56;;;;;;;11.28;10.50;;;;;;;10.89;90.83;100836.31;1671737;84;20958;-79
2022/01/01 03:17:22;;;;;;;10.10;9.60;;;;;;;10.90;90.87;100835.44;1669533;84;20949;-79
2022/01/01 03:19:48;;;;;;;9.80;9.17;;;;;;;10.90;90.88;100832.85;1692943;84;20912;-79
2022/01/01 03:22:14;;;;;;;10.40;9.77;;;;;;;10.90;90.87;100835.00;1685680;83;20887;-78
2022/01/01 03:24:40;;;;;;;9.78;9.38;;;;;;;10.92;90.84;100840.13;1663752;84;20894;-79
2022/01/01 03:27:06;;;;;;;16.20;15.40;;;;;;;10.91;90.85;100839.73;1655475;86;20991;-78
2022/01/01 03:29:33;;;;;;;9.67;9.03;;;;;;;10.89;90.84;100841.49;1658627;86;21211;-78
2022/01/01 03:31:59;;;;;;;110.80;102.53;;;;;;;10.89;90.86;100850.55;1647997;84;21027;-78
2022/01/01 03:34:25;;;;;;;11.73;11.22;;;;;;;10.88;90.88;100849.69;1658697;84;21552;-78
2022/01/01 03:36:52;;;;;;;13.60;12.80;;;;;;;10.89;90.92;100846.23;1664722;85;28082;-78
2022/01/01 03:39:18;;;;;;;14.90;14.20;;;;;;;10.92;90.93;100854.35;1662872;86;20925;-77
2022/01/01 03:41:44;;;;;;;10.40;9.90;;;;;;;10.81;90.89;100827.36;1649969;84;21845;-78
2022/01/01 03:44:10;;;;;;;14.27;13.43;;;;;;;10.92;90.91;100850.47;1654984;86;21392;-77
2022/01/01 03:46:36;;;;;;;9.60;9.10;;;;;;;10.91;90.88;100848.80;1652180;85;20996;-78
2022/01/01 03:49:02;;;;;;;21.48;20.55;;;;;;;10.90;90.90;100853.11;1685855;83;21104;-78
2022/01/01 03:51:28;;;;;;;17.80;17.00;;;;;;;10.92;90.93;100856.94;1682520;83;21079;-79
2022/01/01 03:53:55;;;;;;;18.95;18.15;;;;;;;10.92;90.91;100857.80;1686508;84;21067;-78
2022/01/01 03:56:21;;;;;;;13.97;13.37;;;;;;;10.92;90.91;100862.97;1689687;83;21420;-79
2022/01/01 03:58:47;;;;;;;14.37;13.77;;;;;;;10.85;90.85;100852.31;1676173;85;21636;-78
2022/01/01 04:01:13;;;;;;;12.50;11.90;;;;;;;10.92;90.91;100868.14;1664000;84;21050;-78
2022/01/01 04:03:39;;;;;;;6.10;5.83;;;;;;;10.93;90.92;100870.30;1670438;84;21003;-79
2022/01/01 04:06:06;;;;;;;6.45;6.15;;;;;;;10.92;90.88;100868.14;1678732;85;21071;-79
2022/01/01 04:08:32;;;;;;;1999.90;999.90;;;;;;;10.91;90.92;100867.76;1678988;84;21142;-79
2022/01/01 04:10:58;;;;;;;1999.90;999.90;;;;;;;10.91;90.93;100869.48;1667813;84;21096;-79
2022/01/01 04:13:25;;;;;;;1999.90;999.90;;;;;;;10.93;91.23;100876.33;1657473;85;21390;-79
2022/01/01 04:15:51;;;;;;;1999.90;999.90;;;;;;;10.92;90.96;100879.78;1669682;85;21115;-79
2022/01/01 04:18:27;;;;;;;1999.90;999.90;;;;;;;10.92;90.94;100881.08;1679329;84;21137;-79
2022/01/01 04:20:47;;;;;;;1999.90;999.90;;;;;;;10.90;90.89;100878.98;1688798;83;21115;-79
2022/01/01 04:23:13;;;;;;;1999.90;999.90;;;;;;;10.91;90.91;100888.89;1690195;84;21119;-79
2022/01/01 04:25:40;;;;;;;1999.90;999.90;;;;;;;10.92;90.93;100886.69;1685523;84;20981;-79
2022/01/01 04:28:06;;;;;;;1999.90;999.90;;;;;;;10.89;90.89;100888.06;1675281;83;21105;-79
2022/01/01 04:30:32;;;;;;;1999.90;999.90;;;;;;;10.90;90.98;100884.16;1678947;84;21471;-79
2022/01/01 04:32:59;;;;;;;1999.90;999.90;;;;;;;10.92;91.00;100893.16;1690602;84;21321;-79
2022/01/01 04:35:25;;;;;;;;;;;;;;;10.92;90.95;100890.57;1668203;84;21126;-79
2022/01/01 04:37:51;;;;;;;1999.90;999.90;;;;;;;10.92;90.96;100891.86;1685484;83;20256;-79
2022/01/01 04:40:17;;;;;;;1999.90;999.90;;;;;;;10.90;91.00;100889.33;1684357;84;22316;-79
2022/01/01 04:42:44;;;;;;;1999.90;999.90;;;;;;;10.93;91.03;100893.14;1682678;83;22244;-79
2022/01/01 04:45:11;;;;;;;1999.90;999.90;;;;;;;10.92;91.03;100891.43;1690550;84;25300;-79
2022/01/01 04:47:37;;;;;;;1999.90;999.90;;;;;;;10.93;91.05;100895.73;1677758;84;21068;-79
2022/01/01 04:50:05;;;;;;;1999.90;999.90;;;;;;;10.93;91.01;100893.58;1686947;83;21719;-78
2022/01/01 04:52:32;;;;;;;1999.90;999.90;;;;;;;10.93;91.01;100895.73;1679772;84;20989;-78
2022/01/01 04:54:58;;;;;;;1999.90;999.90;;;;;;;10.94;91.08;100897.44;1693531;83;20916;-78
2022/01/01 04:57:30;;;;;;;1999.90;999.90;;;;;;;10.97;91.09;100899.13;1692416;83;20940;-79
2022/01/01 04:59:54;;;;;;;1999.90;999.90;;;;;;;10.99;91.06;100897.82;1686640;83;20931;-78
2022/01/01 05:02:20;;;;;;;1999.90;999.90;;;;;;;11.00;91.06;100904.27;1678843;83;20930;-78
2022/01/01 05:04:46;;;;;;;1999.90;999.90;;;;;;;11.02;91.09;100899.92;1663718;86;20988;-78
2022/01/01 05:07:12;;;;;;;1999.90;999.90;;;;;;;11.03;91.02;100898.20;1669012;84;21401;-78
2022/01/01 05:09:38;;;;;;;1999.90;999.90;;;;;;;11.02;91.00;100899.08;1647494;86;20916;-78
2022/01/01 05:12:06;;;;;;;1999.90;999.90;;;;;;;11.03;91.06;100902.94;1669618;84;21270;-78
2022/01/01 05:14:34;;;;;;;1999.90;999.90;;;;;;;11.03;91.06;100905.52;1662997;86;21106;-78
2022/01/01 05:17:00;;;;;;;1999.90;999.90;;;;;;;11.04;91.02;100904.64;1664528;86;21009;-79
2022/01/01 05:19:26;;;;;;;1999.90;999.90;;;;;;;11.03;91.02;100906.81;1650244;84;20939;-79
2022/01/01 05:21:55;;;;;;;1999.90;999.90;;;;;;;11.03;91.02;100913.28;1656059;86;20897;-79
2022/01/01 05:24:21;;;;;;;1999.90;999.90;;;;;;;11.02;91.00;100919.34;1663913;84;20875;-78
2022/01/01 05:26:47;;;;;;;74.77;70.78;;;;;;;11.02;90.98;100913.30;1663935;85;20955;-79
2022/01/01 05:29:13;;;;;;;87.67;83.03;;;;;;;11.02;91.00;100918.48;1639537;86;21078;-79
2022/01/01 05:31:39;;;;;;;72.63;68.77;;;;;;;11.03;91.04;100914.58;1661447;86;20916;-79
2022/01/01 05:34:05;;;;;;;76.40;72.37;;;;;;;11.05;91.02;100923.17;1647650;86;21135;-79
2022/01/01 05:36:31;;;;;;;72.30;68.50;;;;;;;11.04;90.98;100927.08;1663552;84;21088;-79
2022/01/01 05:38:57;;;;;;;64.60;61.20;;;;;;;11.04;91.02;100931.81;1649040;85;21134;-78
2022/01/01 05:41:23;;;;;;;69.85;66.15;;;;;;;11.04;91.01;100929.67;1655777;85;21086;-78
2022/01/01 05:43:50;;;;;;;74.70;70.47;;;;;;;11.03;91.00;100922.34;1652254;84;21322;-78
2022/01/01 05:46:16;;;;;;;73.10;69.17;;;;;;;11.03;91.02;100925.37;1647815;85;21313;-78
2022/01/01 05:48:42;;;;;;;1999.90;999.90;;;;;;;11.04;91.04;100933.11;1654784;86;21270;-78
2022/01/01 05:51:08;;;;;;;1999.90;999.90;;;;;;;11.03;90.98;100939.59;1671934;83;21074;-78
2022/01/01 05:53:35;;;;;;;1999.90;999.90;;;;;;;11.03;91.02;100937.87;1663757;86;21682;-78
2022/01/01 05:56:01;;;;;;;1999.90;999.90;;;;;;;11.02;91.01;100945.65;1657424;85;21064;-78
2022/01/01 05:58:27;;;;;;;1999.90;999.90;;;;;;;11.01;91.02;100949.11;1663573;86;21103;-78
2022/01/01 06:00:53;;;;;;;1999.90;999.90;;;;;;;11.02;91.05;100952.97;1657413;84;21078;-78
2022/01/01 06:03:19;;;;;;;1999.90;999.90;;;;;;;11.02;91.05;100956.86;1658797;84;20904;-78
2022/01/01 06:05:48;;;;;;;16.20;15.40;;;;;;;11.02;91.08;100956.86;1663675;86;21032;-78
2022/01/01 06:08:13;;;;;;;18.02;17.20;;;;;;;11.03;91.05;100961.16;1658400;84;21071;-78
2022/01/01 06:10:39;;;;;;;18.83;17.93;;;;;;;11.03;91.07;100966.33;1662735;84;20926;-78
2022/01/01 06:13:06;;;;;;;21.43;20.43;;;;;;;11.04;91.04;100965.89;1663458;86;21466;-78
2022/01/01 06:15:33;;;;;;;20.35;19.40;;;;;;;11.04;91.05;100964.16;1655131;85;21036;-79
2022/01/01 06:17:59;;;;;;;17.27;16.57;;;;;;;11.04;91.06;100968.05;1639946;84;21071;-78
2022/01/01 06:20:25;;;;;;;19.60;18.70;;;;;;;11.03;91.05;100972.80;1663446;85;20924;-79
2022/01/01 06:22:51;;;;;;;41.33;38.60;;;;;;;11.04;91.08;100977.10;1653804;84;21070;-79
2022/01/01 06:25:17;;;;;;;37.53;35.60;;;;;;;11.04;91.07;100978.40;1663545;83;21012;-79
2022/01/01 06:27:43;;;;;;;38.00;35.95;;;;;;;11.05;91.06;100976.66;1644506;86;21134;-79
2022/01/01 06:30:11;;;;;;;32.93;31.13;;;;;;;11.06;91.08;100980.97;1653690;84;22717;-79
2022/01/01 06:32:37;;;;;;;29.40;27.80;;;;;;;11.05;91.05;100983.13;1664448;85;21421;-79
2022/01/01 06:35:04;;;;;;;41.83;39.70;;;;;;;11.06;91.07;100983.12;1657502;85;20953;-79
2022/01/01 06:37:30;;;;;;;34.90;33.20;;;;;;;11.05;91.04;100987.88;1657840;86;20933;-79
2022/01/01 06:39:56;;;;;;;91.53;86.63;;;;;;;11.06;91.07;100997.34;1664680;84;20897;-79
2022/01/01 06:42:22;;;;;;;63.60;59.93;;;;;;;11.05;91.04;101000.81;1655496;86;20953;-79
2022/01/01 06:44:48;;;;;;;37.93;36.00;;;;;;;11.03;91.02;100991.36;1663108;86;20992;-79
2022/01/01 06:47:14;;;;;;;35.33;33.53;;;;;;;11.01;91.06;100999.13;1601862;84;21106;-79
2022/01/01 06:49:40;;;;;;;28.73;27.27;;;;;;;11.01;91.04;101003.02;1555414;91;22398;-79
2022/01/01 06:52:07;;;;;;;212.10;79.23;;;;;;;10.89;91.09;100988.52;1539898;92;21173;-79
2022/01/01 06:54:33;;;;;;;81.10;76.80;;;;;;;10.89;91.09;100988.52;1547946;92;22105;-79
2022/01/01 06:56:59;;;;;;;56.27;53.37;;;;;;;10.99;91.03;101019.43;1586083;89;21270;-79
2022/01/01 06:59:25;;;;;;;119.37;112.68;;;;;;;10.98;91.06;101035.39;1583044;90;20933;-79
2022/01/01 07:01:52;;;;;;;79.43;75.13;;;;;;;10.97;91.05;101034.97;1554187;90;20927;-79
2022/01/01 07:04:18;;;;;;;;;;;;;;;10.97;91.11;101032.39;1582184;89;20910;-79
2022/01/01 07:06:44;;;;;;;85.97;81.30;;;;;;;10.97;91.10;101029.80;1592295;89;20174;-79
2022/01/01 07:09:11;;;;;;;72.43;68.43;;;;;;;10.97;91.08;101036.70;1524933;93;21108;-79
2022/01/01 07:11:37;;;;;;;78.85;74.45;;;;;;;10.96;91.09;101034.55;1508455;93;21358;-78
2022/01/01 07:14:03;;;;;;;65.60;62.10;;;;;;;10.96;91.09;101038.44;1589495;89;21020;-79
2022/01/01 07:16:29;;;;;;;67.97;64.22;;;;;;;10.93;91.08;101044.50;1582230;90;21045;-79
2022/01/01 07:18:55;;;;;;;70.83;66.72;;;;;;;10.94;91.10;101042.33;1524963;93;21115;-79
2022/01/01 07:21:21;;;;;;;66.30;62.77;;;;;;;10.94;91.09;101051.39;1577148;89;20934;-79
2022/01/01 07:23:47;;;;;;;65.70;61.90;;;;;;;10.93;91.07;101050.11;1577305;89;21044;-79
2022/01/01 07:26:13;;;;;;;63.67;60.33;;;;;;;10.94;91.15;101060.87;1582413;89;21033;-79
2022/01/01 07:28:39;;;;;;;57.65;54.55;;;;;;;10.94;91.11;101065.62;1583040;89;21533;-79
2022/01/01 07:31:06;;;;;;;65.95;62.30;;;;;;;10.95;91.14;101062.16;1583538;89;21016;-78
2022/01/01 07:33:32;;;;;;;55.97;52.93;;;;;;;10.97;91.09;101071.63;1519553;93;21525;-79
2022/01/01 07:35:58;;;;;;;50.50;47.90;;;;;;;10.95;91.08;101078.13;1581431;90;20929;-78
2022/01/01 07:38:24;;;;;;;45.83;43.33;;;;;;;10.96;91.10;101077.25;1582332;89;21140;-78
2022/01/01 07:40:51;;;;;;;51.58;48.87;;;;;;;10.98;91.11;101078.52;1582909;89;20997;-78
2022/01/01 07:43:19;;;;;;;37.40;35.50;;;;;;;10.98;91.14;101087.14;1585117;89;21136;-78
2022/01/01 07:45:46;;;;;;;38.90;36.83;;;;;;;10.99;91.14;101083.69;1577297;90;20982;-78
2022/01/01 07:48:12;;;;;;;37.17;35.38;;;;;;;11.00;91.11;101087.13;1583099;89;26621;-78
2022/01/01 07:50:40;;;;;;;61.60;55.50;;;;;;;11.00;91.10;101100.06;1578556;89;20937;-78
2022/01/01 07:53:06;;;;;;;57.25;54.18;;;;;;;10.99;91.10;101099.21;1585101;89;21662;-78
2022/01/01 07:55:33;;;;;;;52.38;49.60;;;;;;;10.99;91.07;101108.70;1580080;89;21039;-78
2022/01/01 07:57:59;;;;;;;55.25;52.33;;;;;;;10.99;91.07;101104.82;1583063;89;21133;-78
2022/01/01 08:00:26;;;;;;;64.10;60.70;;;;;;;10.97;91.05;101116.48;1576532;89;21857;-77
2022/01/01 08:02:55;;;;;;;52.53;49.70;;;;;;;10.97;91.11;101117.77;1578296;90;21080;-81
2022/01/01 08:05:22;;;;;;;55.80;52.75;;;;;;;10.98;91.09;101130.28;1580064;90;21525;-81
2022/01/01 08:07:48;;;;;;;24.57;23.37;;;;;;;10.96;91.08;101122.53;1580957;89;21561;-77
2022/01/01 08:10:14;;;;;;;13.67;12.97;;;;;;;10.94;91.09;101125.13;1578330;90;22384;-78
2022/01/01 08:12:41;;;;;;;12.63;11.93;;;;;;;10.92;91.08;101125.58;1569856;89;20902;-78
2022/01/01 08:15:08;;;;;;;16.80;16.00;;;;;;;10.93;91.13;101129.88;1580271;89;21090;-78
2022/01/01 08:17:35;;;;;;;17.20;16.40;;;;;;;10.94;91.15;101134.63;1578088;89;21733;-78
2022/01/01 08:20:02;;;;;;;19.10;18.10;;;;;;;10.94;91.14;101145.83;1577533;89;21412;-78
2022/01/01 08:22:28;;;;;;;63.05;25.55;;;;;;;10.95;91.13;101148.84;1597904;86;143726;-77
2022/01/01 08:24:54;;;;;;;1.80;1.62;;;;;;;10.93;91.07;101141.96;1587014;88;21469;-78
2022/01/01 08:27:20;;;;;;;5.80;1.80;;;;;;;10.93;91.12;101141.52;1601728;88;21121;-79
2022/01/01 08:29:46;;;;;;;3.47;2.90;;;;;;;10.94;91.13;101146.27;1597464;88;21113;-78
2022/01/01 08:32:12;;;;;;;5.43;5.03;;;;;;;10.95;91.17;101151.42;1600746;88;21203;-78
2022/01/01 08:34:38;;;;;;;2.97;2.57;;;;;;;10.95;91.15;101147.55;1600551;88;21588;-79
2022/01/01 08:37:04;;;;;;;5.70;5.27;;;;;;;10.95;91.10;101144.10;1600922;88;21968;-71
2022/01/01 08:39:31;;;;;;;6.83;6.40;;;;;;;10.95;91.10;101152.72;1602093;88;21620;-70
2022/01/01 08:41:57;;;;;;;4.92;4.50;;;;;;;10.97;91.16;101156.59;1586434;88;21700;-71
2022/01/01 08:44:24;;;;;;;5.75;5.42;;;;;;;11.00;91.16;101153.11;1598246;89;20958;-70
2022/01/01 08:46:50;;;;;;;7.20;5.30;;;;;;;11.01;91.11;101158.72;1604539;88;21185;-70
2022/01/01 08:49:15;;;;;;;5.70;5.20;;;;;;;10.99;91.10;101157.44;1605097;88;21501;-71
2022/01/01 08:51:43;;;;;;;1.70;1.60;;;;;;;10.99;91.12;101161.75;1599667;89;21016;-70
2022/01/01 08:54:12;;;;;;;2.75;1.35;;;;;;;10.98;91.08;101164.77;1606387;88;21545;-70
2022/01/01 08:56:39;;;;;;;1.50;1.40;;;;;;;10.99;91.10;101169.52;1598730;87;21410;-71
2022/01/01 08:59:05;;;;;;;2.65;1.42;;;;;;;11.00;91.13;101177.27;1571821;89;21422;-71
2022/01/01 09:01:31;;;;;;;1.47;1.37;;;;;;;11.02;91.16;101175.52;1597765;88;21697;-71
2022/01/01 09:03:58;;;;;;;1.30;1.10;;;;;;;11.03;91.12;101180.26;1592571;88;21533;-70
2022/01/01 09:06:24;;;;;;;;;;;;;;;11.05;91.12;101178.52;1596456;88;21374;-70
2022/01/01 09:08:50;;;;;;;1.70;1.12;;;;;;;11.02;91.09;101183.72;1605482;88;20754;-70
2022/01/01 09:11:17;;;;;;;3.10;1.05;;;;;;;11.02;91.09;101183.72;1595525;88;21550;-70
2022/01/01 09:13:44;;;;;;;2.83;1.12;;;;;;;11.04;91.11;101183.27;1591657;88;21762;-70
2022/01/01 09:16:12;;;;;;;2.58;1.20;;;;;;;11.04;91.08;101189.74;1590370;88;25661;-67
2022/01/01 09:18:40;;;;;;;1.75;1.17;;;;;;;11.04;91.08;101193.19;1587497;89;21424;-71
2022/01/01 09:21:06;;;;;;;2.92;1.00;;;;;;;11.05;91.11;101193.61;1602127;87;21092;-72
2022/01/01 09:23:33;;;;;;;3.55;1.20;;;;;;;11.06;91.12;101198.34;1594828;88;21444;-72
2022/01/01 09:26:01;;;;;;;2.45;1.00;;;;;;;11.09;91.14;101205.66;1591798;88;22363;-71
2022/01/01 09:28:32;;;;;;;2.47;1.20;;;;;;;11.09;91.06;101211.27;1590111;89;21035;-73
2022/01/01 09:30:59;;;;;;;1.72;1.20;;;;;;;11.08;91.06;101212.14;1586997;88;21361;-73
2022/01/01 09:33:29;;;;;;;2.52;0.95;;;;;;;11.07;91.09;101206.10;1571464;89;21614;-73
2022/01/01 09:35:54;;;;;;;2.00;0.93;;;;;;;11.08;91.08;101204.38;1594497;89;21462;-71
2022/01/01 09:38:20;;;;;;;2.10;1.23;;;;;;;11.08;91.09;101203.08;1589369;88;20906;-74
2022/01/01 09:40:48;;;;;;;1.37;0.98;;;;;;;11.08;91.10;101200.48;1606395;87;21413;-73
2022/01/01 09:43:16;;;;;;;1.30;1.02;;;;;;;11.09;91.05;101205.66;1602695;87;21022;-73
2022/01/01 09:45:43;;;;;;;2.10;1.07;;;;;;;11.10;91.09;101224.19;1604823;88;21506;-75
2022/01/01 09:48:09;;;;;;;1.30;0.82;;;;;;;11.11;91.11;101223.32;1605700;87;21092;-75
2022/01/01 09:50:36;;;;;;;1.82;1.10;;;;;;;11.13;91.09;101226.75;1605853;87;21670;-73
2022/01/01 09:53:02;;;;;;;3.02;1.17;;;;;;;11.13;91.07;101233.66;1605168;87;21084;-75
2022/01/01 09:55:29;;;;;;;1.80;1.00;;;;;;;11.16;91.11;101239.67;1604767;87;21620;-76
2022/01/01 09:57:55;;;;;;;3.72;2.05;;;;;;;11.18;91.09;101243.11;1607113;87;21127;-74
2022/01/01 10:00:20;;;;;;;1.00;0.80;;;;;;;11.19;91.14;101237.06;1606100;88;20885;-73
2022/01/01 10:02:47;;;;;;;3.00;1.10;;;;;;;11.24;91.16;101240.91;1596003;88;20911;-73
2022/01/01 10:05:13;;;;;;;2.40;1.17;;;;;;;11.27;91.11;101239.58;1612994;87;21085;-72
2022/01/01 10:07:39;;;;;;;2.35;1.07;;;;;;;11.28;91.12;101241.30;1590988;88;21097;-74
2022/01/01 10:10:25;;;;;;;2.07;0.73;;;;;;;11.26;91.02;101246.48;1593962;89;20962;-72
2022/01/01 10:12:52;;;;;;;1.13;0.80;;;;;;;11.24;90.99;101241.77;1620467;88;21041;-72
2022/01/01 10:15:19;;;;;;;1.32;0.85;;;;;;;11.27;91.09;101240.87;1616903;87;21123;-72
2022/01/01 10:17:49;;;;;;;2.25;0.85;;;;;;;11.24;90.97;101261.61;1592329;89;21089;-72
2022/01/01 10:20:15;;;;;;;3.62;3.35;;;;;;;11.23;91.04;101267.23;1613104;87;21080;-72
2022/01/01 10:22:43;;;;;;;2.30;2.20;;;;;;;11.24;91.08;101265.06;1616651;88;27774;-73
2022/01/01 10:28:04;;;;;;;2.37;1.70;;;;;;;11.21;90.99;101277.17;1622138;87;20912;-72
2022/01/01 10:30:39;;;;;;;2.20;1.20;;;;;;;11.21;91.02;101282.34;1610117;89;20967;-73
2022/01/01 10:33:13;;;;;;;2.17;1.10;;;;;;;11.20;91.04;101284.08;1602670;88;20933;-73
2022/01/01 10:35:56;;;;;;;1.77;1.30;;;;;;;11.21;91.04;101286.23;1604135;87;21076;-72
2022/01/01 10:38:27;;;;;;;2.05;1.62;;;;;;;11.19;90.99;101291.86;1591615;89;21017;-73
2022/01/01 10:40:57;;;;;;;9.18;8.40;;;;;;;11.19;91.03;101287.53;1602397;89;21408;-73
2022/01/01 10:43:40;;;;;;;3.60;3.30;;;;;;;11.20;91.07;101280.19;1579408;89;21024;-73
2022/01/01 10:46:13;;;;;;;3.92;3.72;;;;;;;11.21;91.04;101293.56;1601295;89;20937;-73
2022/01/01 10:48:53;;;;;;;2.62;2.27;;;;;;;11.22;91.08;101283.63;1610888;87;20969;-73
2022/01/01 10:51:10;;;;;;;2.00;1.90;;;;;;;11.23;91.08;101281.47;1597756;89;21011;-73
2022/01/01 10:53:37;;;;;;;3.27;2.85;;;;;;;11.24;91.06;101292.24;1597858;89;21103;-72
2022/01/01 10:56:19;;;;;;;3.77;1.92;;;;;;;11.26;91.07;101289.20;1592152;88;21137;-72
2022/01/01 10:58:45;;;;;;;3.02;1.72;;;;;;;11.28;91.07;101294.37;1584115;89;21159;-72
2022/01/01 11:01:12;;;;;;;3.58;1.40;;;;;;;11.27;91.04;101298.69;1588116;89;21008;-72
2022/01/01 11:03:42;;;;;;;1.50;1.40;;;;;;;11.29;91.08;101307.74;1593290;88;21042;-72
2022/01/01 11:06:12;;;;;;;1.90;1.77;;;;;;;11.31;91.07;101307.73;1588480;89;21092;-72
2022/01/01 11:08:43;;;;;;;1.92;1.82;;;;;;;11.34;91.07;101312.88;1602610;89;21085;-72
2022/01/01 11:11:12;;;;;;;1.85;1.50;;;;;;;11.36;91.08;101312.44;1593003;88;21164;-73